< < Back
Terminal Aerodrome Forecast


Current Version              Previous Versions:   1  2  3  4  5  6  7  8  9  

Terminal Aerodrome Forecast

439
FTUS42 KGSP 281132
TAFHKY
TAF
KHKY 281132Z 2812/2912 00000KT 4SM BR FEW001
      TEMPO 2812/2814 6SM BR BKN005 BKN025
     FM281400 20003KT P6SM SCT015 OVC020
     FM281600 21004KT P6SM VCSH BKN025
     FM281800 19005KT P6SM BKN040 PROB30 2821/2901 4SM TSRA
      BKN030CB=



Latest METAR

054
SAUS70 KWBC 281300 RRE
MTRHKY
METAR KHKY 281253Z AUTO 00000KT 9SM CLR 24/22 A3005 RMK AO2 SLP153
T02440217


USA.gov is the U.S. government's official web portal to all federal, state and local government web resources and services.